Terminal Aerodrome Forecast
Issued by NWS

Home | Current Version | Previous Version | Text Only | Print | Product List | Glossary Off
Versions: 1 2 3 4 5 6 7 8 9 10 11 12 13 14 15 16 17 18 19

000
FTUS43 KMPX 261700
TAFRNH
TAF
KRNH 261723Z 2618/2718 01005KT 4SM -SN SCT009 OVC015
      TEMPO 2618/2619 2SM -SN BKN009 OVC015
     FM262100 36011KT P6SM -SN OVC018
     FM270000 32011KT P6SM BKN025
     FM270400 32007KT P6SM SCT025
     FM271500 32004KT P6SM SCT250=

USA.gov is the U.S. government's official web portal to all federal, state and local government web resources and services.